sim
Sign-in with your pilot id or email,
or register
Callsign
Passwort

Schedule Details

Flight Number: RYR6442 (1)
Departure: Brussels South Charleroi Airport (EBCI) at 12:35
Arrival: Fuerteventura Airport (GCFV) at 16:55
Route: Ryanair Passenger Schedule. Enter filed route here before submitting Pirep.

Weather Information
Getting current METAR information for EBCI 222320Z 10002KT CAVOK 20/14 Q1023 NOSIG
Getting current METAR information for GCFV 222300Z AUTO 36018KT 9999 NCD 21/17 Q1018

Schedule Frequency

Route Map